Natural Dam, Arkansas
Current Conditions -  °F | °C
As of 12:53 PM on Friday 31 Oct 2014 (Local Time) from KFSM Reporting Station
Broken Clouds Broken Clouds  
Wind Chill: 59°   Ceiling: 3900
Heat Index: 59°   Visibility: 10mi
Dew Point: 39°   Wind: 14mph
Humidity: 48%   Direction: 360°N
Pressure: 30.32"   Gusts: NA
Location:  35.65°N, 94.4°W
Report Text: KFSM 311753Z 36012KT 10SM BKN039 15/04 A3032 RMK AO2 SLP268 T01500039 10150 20094 50006
Loading
Personal Weather Stations






























Interactive Weather Map
Tropical Storm Tracking
New forecast layout! Learn more

10-Day Weather Forecast

Advertisements
Track Severe Weather on mobile